sensor_id;sensor_type;location;lat;lon;timestamp;temperature;humidity
29687;DHT22;16599;47.078;15.536;2023-03-05T00:00:26;-0.60;99.90
29687;DHT22;16599;47.078;15.536;2023-03-05T00:02:53;-0.30;99.90
29687;DHT22;16599;47.078;15.536;2023-03-05T00:05:20;-0.70;99.90
29687;DHT22;16599;47.078;15.536;2023-03-05T00:07:46;-0.80;99.90
29687;DHT22;16599;47.078;15.536;2023-03-05T00:10:14;-0.60;99.90
29687;DHT22;16599;47.078;15.536;2023-03-05T00:12:41;-0.80;99.90
29687;DHT22;16599;47.078;15.536;2023-03-05T00:15:08;-1.20;99.90
29687;DHT22;16599;47.078;15.536;2023-03-05T00:17:34;-1.20;99.90
29687;DHT22;16599;47.078;15.536;2023-03-05T00:20:01;-1.30;99.90
29687;DHT22;16599;47.078;15.536;2023-03-05T00:22:28;-1.20;99.90
29687;DHT22;16599;47.078;15.536;2023-03-05T00:24:54;-1.50;99.90
29687;DHT22;16599;47.078;15.536;2023-03-05T00:27:21;-1.70;99.90
29687;DHT22;16599;47.078;15.536;2023-03-05T00:29:48;-1.40;99.90
29687;DHT22;16599;47.078;15.536;2023-03-05T00:32:14;-1.40;99.90
29687;DHT22;16599;47.078;15.536;2023-03-05T00:34:41;-1.40;99.90
29687;DHT22;16599;47.078;15.536;2023-03-05T00:37:08;-1.30;99.90
29687;DHT22;16599;47.078;15.536;2023-03-05T00:39:35;-1.50;99.90
29687;DHT22;16599;47.078;15.536;2023-03-05T00:42:01;-1.40;99.90
29687;DHT22;16599;47.078;15.536;2023-03-05T00:44:28;-1.20;99.90
29687;DHT22;16599;47.078;15.536;2023-03-05T00:46:55;-1.10;99.90
29687;DHT22;16599;47.078;15.536;2023-03-05T00:49:21;-1.50;99.90
29687;DHT22;16599;47.078;15.536;2023-03-05T00:51:48;-1.60;99.90
29687;DHT22;16599;47.078;15.536;2023-03-05T00:54:15;-1.60;99.90
29687;DHT22;16599;47.078;15.536;2023-03-05T00:56:41;-1.70;99.90
29687;DHT22;16599;47.078;15.536;2023-03-05T00:59:08;-1.80;99.90
29687;DHT22;16599;47.078;15.536;2023-03-05T01:01:35;-1.50;99.90
29687;DHT22;16599;47.078;15.536;2023-03-05T01:04:02;-1.60;99.90
29687;DHT22;16599;47.078;15.536;2023-03-05T01:06:29;-1.60;99.90
29687;DHT22;16599;47.078;15.536;2023-03-05T01:08:55;-1.80;99.90
29687;DHT22;16599;47.078;15.536;2023-03-05T01:11:22;-1.90;99.90
29687;DHT22;16599;47.078;15.536;2023-03-05T01:13:49;-1.80;99.90
29687;DHT22;16599;47.078;15.536;2023-03-05T01:16:15;-1.90;99.90
29687;DHT22;16599;47.078;15.536;2023-03-05T01:18:42;-2.00;99.90
29687;DHT22;16599;47.078;15.536;2023-03-05T01:21:09;-1.70;99.90
29687;DHT22;16599;47.078;15.536;2023-03-05T01:23:35;-1.70;99.90
29687;DHT22;16599;47.078;15.536;2023-03-05T01:26:03;-1.90;99.90
29687;DHT22;16599;47.078;15.536;2023-03-05T01:28:30;-2.10;99.90
29687;DHT22;16599;47.078;15.536;2023-03-05T01:30:57;-1.90;99.90
29687;DHT22;16599;47.078;15.536;2023-03-05T01:33:24;-1.60;99.90
29687;DHT22;16599;47.078;15.536;2023-03-05T01:35:51;-1.80;99.90
29687;DHT22;16599;47.078;15.536;2023-03-05T01:38:17;-1.90;99.90
29687;DHT22;16599;47.078;15.536;2023-03-05T01:40:44;-2.30;99.90
29687;DHT22;16599;47.078;15.536;2023-03-05T01:45:38;-1.80;99.90
29687;DHT22;16599;47.078;15.536;2023-03-05T01:48:05;-1.70;99.90
29687;DHT22;16599;47.078;15.536;2023-03-05T01:50:32;-2.10;99.90
29687;DHT22;16599;47.078;15.536;2023-03-05T01:53:00;-2.20;99.90
29687;DHT22;16599;47.078;15.536;2023-03-05T01:55:28;-2.20;99.90
29687;DHT22;16599;47.078;15.536;2023-03-05T01:57:59;-2.20;99.90
29687;DHT22;16599;47.078;15.536;2023-03-05T02:00:28;-2.30;99.90
29687;DHT22;16599;47.078;15.536;2023-03-05T02:02:56;-2.60;99.90
29687;DHT22;16599;47.078;15.536;2023-03-05T02:05:25;-2.20;99.90
29687;DHT22;16599;47.078;15.536;2023-03-05T02:07:56;-2.20;99.90
29687;DHT22;16599;47.078;15.536;2023-03-05T02:10:28;-2.20;99.90
29687;DHT22;16599;47.078;15.536;2023-03-05T02:12:56;-2.00;99.90
29687;DHT22;16599;47.078;15.536;2023-03-05T02:15:24;-2.40;99.90
29687;DHT22;16599;47.078;15.536;2023-03-05T02:17:50;-2.30;99.90
29687;DHT22;16599;47.078;15.536;2023-03-05T02:20:19;-2.60;99.90
29687;DHT22;16599;47.078;15.536;2023-03-05T02:22:46;-2.70;99.90
29687;DHT22;16599;47.078;15.536;2023-03-05T02:25:15;-2.30;99.90
29687;DHT22;16599;47.078;15.536;2023-03-05T02:27:43;-2.70;99.90
29687;DHT22;16599;47.078;15.536;2023-03-05T02:30:11;-2.80;99.90
29687;DHT22;16599;47.078;15.536;2023-03-05T02:32:38;-2.40;99.90
29687;DHT22;16599;47.078;15.536;2023-03-05T02:35:05;-2.80;99.90
29687;DHT22;16599;47.078;15.536;2023-03-05T02:37:32;-2.70;99.90
29687;DHT22;16599;47.078;15.536;2023-03-05T02:39:58;-2.40;99.90
29687;DHT22;16599;47.078;15.536;2023-03-05T02:42:25;-2.80;99.90
29687;DHT22;16599;47.078;15.536;2023-03-05T02:44:52;-2.50;99.90
29687;DHT22;16599;47.078;15.536;2023-03-05T02:47:19;-2.50;99.90
29687;DHT22;16599;47.078;15.536;2023-03-05T02:49:45;-2.50;99.90
29687;DHT22;16599;47.078;15.536;2023-03-05T02:52:12;-2.80;99.90
29687;DHT22;16599;47.078;15.536;2023-03-05T02:54:38;-2.80;99.90
29687;DHT22;16599;47.078;15.536;2023-03-05T02:57:05;-2.80;99.90
29687;DHT22;16599;47.078;15.536;2023-03-05T02:59:32;-2.90;99.90
29687;DHT22;16599;47.078;15.536;2023-03-05T03:01:58;-3.10;99.90
29687;DHT22;16599;47.078;15.536;2023-03-05T03:04:25;-2.90;99.90
29687;DHT22;16599;47.078;15.536;2023-03-05T03:06:52;-2.90;99.90
29687;DHT22;16599;47.078;15.536;2023-03-05T03:09:19;-2.80;99.90
29687;DHT22;16599;47.078;15.536;2023-03-05T03:11:45;-2.50;99.90
29687;DHT22;16599;47.078;15.536;2023-03-05T03:14:12;-2.50;99.90
29687;DHT22;16599;47.078;15.536;2023-03-05T03:16:38;-2.50;99.90
29687;DHT22;16599;47.078;15.536;2023-03-05T03:19:05;-2.90;99.90
29687;DHT22;16599;47.078;15.536;2023-03-05T03:21:32;-3.00;99.90
29687;DHT22;16599;47.078;15.536;2023-03-05T03:23:58;-2.90;99.90
29687;DHT22;16599;47.078;15.536;2023-03-05T03:26:25;-2.80;99.90
29687;DHT22;16599;47.078;15.536;2023-03-05T03:28:52;-3.00;99.90
29687;DHT22;16599;47.078;15.536;2023-03-05T03:31:19;-3.00;99.90
29687;DHT22;16599;47.078;15.536;2023-03-05T03:33:45;-2.70;99.90
29687;DHT22;16599;47.078;15.536;2023-03-05T03:36:12;-2.60;99.90
29687;DHT22;16599;47.078;15.536;2023-03-05T03:38:39;-2.50;99.90
29687;DHT22;16599;47.078;15.536;2023-03-05T03:41:06;-3.10;99.90
29687;DHT22;16599;47.078;15.536;2023-03-05T03:43:36;-2.90;99.90
29687;DHT22;16599;47.078;15.536;2023-03-05T03:46:04;-2.90;99.90
29687;DHT22;16599;47.078;15.536;2023-03-05T03:48:31;-3.30;99.90
29687;DHT22;16599;47.078;15.536;2023-03-05T03:50:58;-3.40;99.90
29687;DHT22;16599;47.078;15.536;2023-03-05T03:53:25;-3.20;99.90
29687;DHT22;16599;47.078;15.536;2023-03-05T03:55:56;-3.00;99.90
29687;DHT22;16599;47.078;15.536;2023-03-05T03:58:23;-2.90;99.90
29687;DHT22;16599;47.078;15.536;2023-03-05T04:00:49;-2.90;99.90
29687;DHT22;16599;47.078;15.536;2023-03-05T04:03:16;-3.20;99.90
29687;DHT22;16599;47.078;15.536;2023-03-05T04:05:42;-3.10;99.90
29687;DHT22;16599;47.078;15.536;2023-03-05T04:08:09;-3.10;99.90
29687;DHT22;16599;47.078;15.536;2023-03-05T04:10:37;-3.40;99.90
29687;DHT22;16599;47.078;15.536;2023-03-05T04:13:05;-3.60;99.90
29687;DHT22;16599;47.078;15.536;2023-03-05T04:15:32;-3.30;99.90
29687;DHT22;16599;47.078;15.536;2023-03-05T04:17:59;-3.30;99.90
29687;DHT22;16599;47.078;15.536;2023-03-05T04:20:26;-3.60;99.90
29687;DHT22;16599;47.078;15.536;2023-03-05T04:22:52;-3.50;99.90
29687;DHT22;16599;47.078;15.536;2023-03-05T04:25:19;-3.30;99.90
29687;DHT22;16599;47.078;15.536;2023-03-05T04:27:46;-3.30;99.90
29687;DHT22;16599;47.078;15.536;2023-03-05T04:30:12;-3.30;99.90
29687;DHT22;16599;47.078;15.536;2023-03-05T04:32:42;-3.20;99.90
29687;DHT22;16599;47.078;15.536;2023-03-05T04:35:09;-3.40;99.90
29687;DHT22;16599;47.078;15.536;2023-03-05T04:37:36;-3.40;99.90
29687;DHT22;16599;47.078;15.536;2023-03-05T04:40:03;-3.20;99.90
29687;DHT22;16599;47.078;15.536;2023-03-05T04:42:30;-3.20;99.90
29687;DHT22;16599;47.078;15.536;2023-03-05T04:44:57;-3.50;99.90
29687;DHT22;16599;47.078;15.536;2023-03-05T04:47:24;-3.30;99.90
29687;DHT22;16599;47.078;15.536;2023-03-05T04:49:50;-3.20;99.90
29687;DHT22;16599;47.078;15.536;2023-03-05T04:52:17;-3.40;99.90
29687;DHT22;16599;47.078;15.536;2023-03-05T04:54:44;-3.40;99.90
29687;DHT22;16599;47.078;15.536;2023-03-05T04:57:11;-3.30;99.90
29687;DHT22;16599;47.078;15.536;2023-03-05T04:59:38;-3.10;99.90
29687;DHT22;16599;47.078;15.536;2023-03-05T05:02:04;-3.10;99.90
29687;DHT22;16599;47.078;15.536;2023-03-05T05:04:31;-3.20;99.90
29687;DHT22;16599;47.078;15.536;2023-03-05T05:06:58;-3.60;99.90
29687;DHT22;16599;47.078;15.536;2023-03-05T05:09:25;-3.60;99.90
29687;DHT22;16599;47.078;15.536;2023-03-05T05:11:51;-3.40;99.90
29687;DHT22;16599;47.078;15.536;2023-03-05T05:14:18;-3.60;99.90
29687;DHT22;16599;47.078;15.536;2023-03-05T05:16:45;-3.80;99.90
29687;DHT22;16599;47.078;15.536;2023-03-05T05:19:11;-3.80;99.90
29687;DHT22;16599;47.078;15.536;2023-03-05T05:21:38;-3.60;99.90
29687;DHT22;16599;47.078;15.536;2023-03-05T05:24:05;-3.50;99.90
29687;DHT22;16599;47.078;15.536;2023-03-05T05:26:31;-3.40;99.90
29687;DHT22;16599;47.078;15.536;2023-03-05T05:28:58;-3.50;99.90
29687;DHT22;16599;47.078;15.536;2023-03-05T05:31:25;-3.50;99.90
29687;DHT22;16599;47.078;15.536;2023-03-05T05:33:52;-3.70;99.90
29687;DHT22;16599;47.078;15.536;2023-03-05T05:36:18;-3.50;99.90
29687;DHT22;16599;47.078;15.536;2023-03-05T05:38:47;-3.50;99.90
29687;DHT22;16599;47.078;15.536;2023-03-05T05:41:14;-3.70;99.90
29687;DHT22;16599;47.078;15.536;2023-03-05T05:43:42;-3.80;99.90
29687;DHT22;16599;47.078;15.536;2023-03-05T05:46:15;-3.60;99.90
29687;DHT22;16599;47.078;15.536;2023-03-05T05:48:43;-3.40;99.90
29687;DHT22;16599;47.078;15.536;2023-03-05T05:51:11;-3.30;99.90
29687;DHT22;16599;47.078;15.536;2023-03-05T05:53:38;-3.70;99.90
29687;DHT22;16599;47.078;15.536;2023-03-05T05:56:05;-3.60;99.90
29687;DHT22;16599;47.078;15.536;2023-03-05T05:58:32;-3.40;99.90
29687;DHT22;16599;47.078;15.536;2023-03-05T06:00:59;-3.20;99.90
29687;DHT22;16599;47.078;15.536;2023-03-05T06:03:26;-3.20;99.90
29687;DHT22;16599;47.078;15.536;2023-03-05T06:05:52;-3.30;99.90
29687;DHT22;16599;47.078;15.536;2023-03-05T06:08:19;-3.10;99.90
29687;DHT22;16599;47.078;15.536;2023-03-05T06:10:52;-2.90;99.90
29687;DHT22;16599;47.078;15.536;2023-03-05T06:13:19;-2.90;99.90
29687;DHT22;16599;47.078;15.536;2023-03-05T06:15:53;-3.30;99.90
29687;DHT22;16599;47.078;15.536;2023-03-05T06:18:20;-3.20;99.90
29687;DHT22;16599;47.078;15.536;2023-03-05T06:20:52;-3.00;99.90
29687;DHT22;16599;47.078;15.536;2023-03-05T06:23:19;-3.10;99.90
29687;DHT22;16599;47.078;15.536;2023-03-05T06:25:45;-3.10;99.90
29687;DHT22;16599;47.078;15.536;2023-03-05T06:28:12;-3.00;99.90
29687;DHT22;16599;47.078;15.536;2023-03-05T06:30:39;-3.00;99.90
29687;DHT22;16599;47.078;15.536;2023-03-05T06:33:05;-2.90;99.90
29687;DHT22;16599;47.078;15.536;2023-03-05T06:35:32;-2.80;99.90
29687;DHT22;16599;47.078;15.536;2023-03-05T06:37:59;-2.70;99.90
29687;DHT22;16599;47.078;15.536;2023-03-05T06:40:26;-2.70;99.90
29687;DHT22;16599;47.078;15.536;2023-03-05T06:42:52;-2.40;99.90
29687;DHT22;16599;47.078;15.536;2023-03-05T06:45:19;-2.20;99.90
29687;DHT22;16599;47.078;15.536;2023-03-05T06:47:46;-2.20;99.90
29687;DHT22;16599;47.078;15.536;2023-03-05T06:50:12;-2.20;99.90
29687;DHT22;16599;47.078;15.536;2023-03-05T06:52:39;-2.20;99.90
29687;DHT22;16599;47.078;15.536;2023-03-05T06:55:06;-2.00;99.90
29687;DHT22;16599;47.078;15.536;2023-03-05T06:57:33;-2.10;99.90
29687;DHT22;16599;47.078;15.536;2023-03-05T07:00:00;-1.90;99.90
29687;DHT22;16599;47.078;15.536;2023-03-05T07:02:26;-1.90;99.90
29687;DHT22;16599;47.078;15.536;2023-03-05T07:04:53;-1.80;99.90
29687;DHT22;16599;47.078;15.536;2023-03-05T07:07:20;-1.70;99.90
29687;DHT22;16599;47.078;15.536;2023-03-05T07:09:46;-1.60;99.90
29687;DHT22;16599;47.078;15.536;2023-03-05T07:12:15;-1.50;99.90
29687;DHT22;16599;47.078;15.536;2023-03-05T07:14:42;-1.20;99.90
29687;DHT22;16599;47.078;15.536;2023-03-05T07:17:09;-1.20;99.90
29687;DHT22;16599;47.078;15.536;2023-03-05T07:19:36;-1.10;99.90
29687;DHT22;16599;47.078;15.536;2023-03-05T07:22:05;-1.00;99.90
29687;DHT22;16599;47.078;15.536;2023-03-05T07:24:31;-0.80;99.90
29687;DHT22;16599;47.078;15.536;2023-03-05T07:26:58;-0.70;99.90
29687;DHT22;16599;47.078;15.536;2023-03-05T07:29:25;-0.70;99.90
29687;DHT22;16599;47.078;15.536;2023-03-05T07:31:53;-0.60;99.90
29687;DHT22;16599;47.078;15.536;2023-03-05T07:34:20;-0.30;99.90
29687;DHT22;16599;47.078;15.536;2023-03-05T07:36:50;-0.30;99.90
29687;DHT22;16599;47.078;15.536;2023-03-05T07:39:17;0.00;99.90
29687;DHT22;16599;47.078;15.536;2023-03-05T07:41:45;0.10;99.90
29687;DHT22;16599;47.078;15.536;2023-03-05T07:44:12;0.30;99.90
29687;DHT22;16599;47.078;15.536;2023-03-05T07:46:38;0.50;99.90
29687;DHT22;16599;47.078;15.536;2023-03-05T07:49:05;0.60;99.90
29687;DHT22;16599;47.078;15.536;2023-03-05T07:51:32;0.70;99.90
29687;DHT22;16599;47.078;15.536;2023-03-05T07:53:59;0.90;99.90
29687;DHT22;16599;47.078;15.536;2023-03-05T07:56:29;1.10;99.90
29687;DHT22;16599;47.078;15.536;2023-03-05T07:58:58;1.30;99.90
29687;DHT22;16599;47.078;15.536;2023-03-05T08:01:25;1.40;99.90
29687;DHT22;16599;47.078;15.536;2023-03-05T08:03:51;1.60;99.90
29687;DHT22;16599;47.078;15.536;2023-03-05T08:06:18;2.00;99.90
29687;DHT22;16599;47.078;15.536;2023-03-05T08:08:45;2.00;99.90
29687;DHT22;16599;47.078;15.536;2023-03-05T08:11:12;2.50;99.90
29687;DHT22;16599;47.078;15.536;2023-03-05T08:13:39;2.50;99.90
29687;DHT22;16599;47.078;15.536;2023-03-05T08:16:07;2.50;99.90
29687;DHT22;16599;47.078;15.536;2023-03-05T08:18:35;2.70;99.90
29687;DHT22;16599;47.078;15.536;2023-03-05T08:21:02;2.60;99.90
29687;DHT22;16599;47.078;15.536;2023-03-05T08:23:29;2.60;99.90
29687;DHT22;16599;47.078;15.536;2023-03-05T08:25:55;2.70;99.90
29687;DHT22;16599;47.078;15.536;2023-03-05T08:28:22;2.80;99.90
29687;DHT22;16599;47.078;15.536;2023-03-05T08:30:49;3.20;99.90
29687;DHT22;16599;47.078;15.536;2023-03-05T08:33:16;3.50;99.90
29687;DHT22;16599;47.078;15.536;2023-03-05T08:35:43;3.60;99.90
29687;DHT22;16599;47.078;15.536;2023-03-05T08:38:09;3.80;99.90
29687;DHT22;16599;47.078;15.536;2023-03-05T08:40:36;3.90;99.90
29687;DHT22;16599;47.078;15.536;2023-03-05T08:43:03;3.80;99.20
29687;DHT22;16599;47.078;15.536;2023-03-05T08:45:31;3.90;98.80
29687;DHT22;16599;47.078;15.536;2023-03-05T08:47:57;3.80;98.90
29687;DHT22;16599;47.078;15.536;2023-03-05T08:50:24;4.00;98.90
29687;DHT22;16599;47.078;15.536;2023-03-05T08:52:51;4.30;98.00
29687;DHT22;16599;47.078;15.536;2023-03-05T08:55:18;4.30;99.10
29687;DHT22;16599;47.078;15.536;2023-03-05T08:57:44;4.60;98.50
29687;DHT22;16599;47.078;15.536;2023-03-05T09:00:11;4.60;97.50
29687;DHT22;16599;47.078;15.536;2023-03-05T09:02:39;4.60;96.60
29687;DHT22;16599;47.078;15.536;2023-03-05T09:05:06;4.50;97.50
29687;DHT22;16599;47.078;15.536;2023-03-05T09:07:33;5.00;98.50
29687;DHT22;16599;47.078;15.536;2023-03-05T09:09:59;5.20;96.80
29687;DHT22;16599;47.078;15.536;2023-03-05T09:12:26;5.20;96.90
29687;DHT22;16599;47.078;15.536;2023-03-05T09:14:53;5.30;96.20
29687;DHT22;16599;47.078;15.536;2023-03-05T09:17:20;5.40;95.60
29687;DHT22;16599;47.078;15.536;2023-03-05T09:19:47;5.30;95.00
29687;DHT22;16599;47.078;15.536;2023-03-05T09:22:13;5.10;95.40
29687;DHT22;16599;47.078;15.536;2023-03-05T09:24:40;5.30;95.30
29687;DHT22;16599;47.078;15.536;2023-03-05T09:27:08;5.40;94.10
29687;DHT22;16599;47.078;15.536;2023-03-05T09:29:35;5.60;95.20
29687;DHT22;16599;47.078;15.536;2023-03-05T09:32:02;5.80;94.10
29687;DHT22;16599;47.078;15.536;2023-03-05T09:34:29;5.70;93.30
29687;DHT22;16599;47.078;15.536;2023-03-05T09:36:55;5.90;93.50
29687;DHT22;16599;47.078;15.536;2023-03-05T09:39:22;6.10;93.00
29687;DHT22;16599;47.078;15.536;2023-03-05T09:52:33;6.60;91.00
29687;DHT22;16599;47.078;15.536;2023-03-05T09:55:01;6.70;91.00
29687;DHT22;16599;47.078;15.536;2023-03-05T09:57:35;6.60;89.90
29687;DHT22;16599;47.078;15.536;2023-03-05T10:00:05;6.30;90.20
29687;DHT22;16599;47.078;15.536;2023-03-05T10:02:36;6.10;90.40
29687;DHT22;16599;47.078;15.536;2023-03-05T10:07:39;6.10;89.80
29687;DHT22;16599;47.078;15.536;2023-03-05T10:12:54;6.50;90.20
29687;DHT22;16599;47.078;15.536;2023-03-05T10:15:27;6.60;90.20
29687;DHT22;16599;47.078;15.536;2023-03-05T10:23:29;6.90;88.60
29687;DHT22;16599;47.078;15.536;2023-03-05T10:28:52;7.20;87.70
29687;DHT22;16599;47.078;15.536;2023-03-05T10:34:03;7.40;86.60
29687;DHT22;16599;47.078;15.536;2023-03-05T10:44:15;7.70;85.10
29687;DHT22;16599;47.078;15.536;2023-03-05T10:46:43;7.60;83.50
29687;DHT22;16599;47.078;15.536;2023-03-05T10:51:43;7.60;83.60
29687;DHT22;16599;47.078;15.536;2023-03-05T10:54:18;7.50;84.00
29687;DHT22;16599;47.078;15.536;2023-03-05T10:57:01;7.50;86.50
29687;DHT22;16599;47.078;15.536;2023-03-05T10:59:27;8.00;79.10
29687;DHT22;16599;47.078;15.536;2023-03-05T11:02:01;8.30;79.80
29687;DHT22;16599;47.078;15.536;2023-03-05T11:04:32;8.50;80.10
29687;DHT22;16599;47.078;15.536;2023-03-05T11:07:04;8.20;76.70
29687;DHT22;16599;47.078;15.536;2023-03-05T11:09:31;8.20;78.40
29687;DHT22;16599;47.078;15.536;2023-03-05T11:12:03;8.10;75.80
29687;DHT22;16599;47.078;15.536;2023-03-05T11:14:34;7.60;79.40
29687;DHT22;16599;47.078;15.536;2023-03-05T11:17:02;7.50;78.00
29687;DHT22;16599;47.078;15.536;2023-03-05T11:19:34;8.20;74.70
29687;DHT22;16599;47.078;15.536;2023-03-05T11:24:36;8.20;71.50
29687;DHT22;16599;47.078;15.536;2023-03-05T11:27:19;8.20;73.70
29687;DHT22;16599;47.078;15.536;2023-03-05T11:29:47;8.40;73.30
29687;DHT22;16599;47.078;15.536;2023-03-05T11:32:24;8.70;71.50
29687;DHT22;16599;47.078;15.536;2023-03-05T11:34:52;8.60;70.20
29687;DHT22;16599;47.078;15.536;2023-03-05T11:37:29;8.40;71.70
29687;DHT22;16599;47.078;15.536;2023-03-05T11:42:41;8.40;71.90
29687;DHT22;16599;47.078;15.536;2023-03-05T11:45:15;8.70;72.70
29687;DHT22;16599;47.078;15.536;2023-03-05T11:47:45;9.00;70.80
29687;DHT22;16599;47.078;15.536;2023-03-05T11:50:21;8.90;69.90
29687;DHT22;16599;47.078;15.536;2023-03-05T11:52:50;8.70;69.60
29687;DHT22;16599;47.078;15.536;2023-03-05T11:55:18;9.00;70.50
29687;DHT22;16599;47.078;15.536;2023-03-05T11:58:09;9.10;67.30
29687;DHT22;16599;47.078;15.536;2023-03-05T12:00:44;8.50;66.20
29687;DHT22;16599;47.078;15.536;2023-03-05T12:03:15;7.80;69.70
29687;DHT22;16599;47.078;15.536;2023-03-05T12:05:44;7.60;71.20
29687;DHT22;16599;47.078;15.536;2023-03-05T12:08:12;8.10;72.20
29687;DHT22;16599;47.078;15.536;2023-03-05T12:10:40;8.50;71.50
29687;DHT22;16599;47.078;15.536;2023-03-05T12:20:55;9.60;68.90
29687;DHT22;16599;47.078;15.536;2023-03-05T12:23:22;9.50;66.70
29687;DHT22;16599;47.078;15.536;2023-03-05T12:25:53;9.30;66.90
29687;DHT22;16599;47.078;15.536;2023-03-05T12:30:55;8.40;66.40
29687;DHT22;16599;47.078;15.536;2023-03-05T12:38:47;8.90;66.70
29687;DHT22;16599;47.078;15.536;2023-03-05T12:46:39;8.90;67.10
29687;DHT22;16599;47.078;15.536;2023-03-05T12:51:54;10.10;63.80
29687;DHT22;16599;47.078;15.536;2023-03-05T12:57:20;9.50;64.00
29687;DHT22;16599;47.078;15.536;2023-03-05T13:03:07;10.30;59.50
29687;DHT22;16599;47.078;15.536;2023-03-05T13:05:35;9.10;63.40
29687;DHT22;16599;47.078;15.536;2023-03-05T13:08:14;9.60;64.30
29687;DHT22;16599;47.078;15.536;2023-03-05T13:10:44;9.40;64.50
29687;DHT22;16599;47.078;15.536;2023-03-05T13:13:15;9.40;63.60
29687;DHT22;16599;47.078;15.536;2023-03-05T13:15:48;9.60;65.50
29687;DHT22;16599;47.078;15.536;2023-03-05T13:18:26;9.50;62.80
29687;DHT22;16599;47.078;15.536;2023-03-05T13:21:07;9.60;65.40
29687;DHT22;16599;47.078;15.536;2023-03-05T13:23:34;9.80;63.90
29687;DHT22;16599;47.078;15.536;2023-03-05T13:28:37;9.80;63.90
29687;DHT22;16599;47.078;15.536;2023-03-05T13:31:15;9.80;65.60
29687;DHT22;16599;47.078;15.536;2023-03-05T13:33:54;9.70;63.20
29687;DHT22;16599;47.078;15.536;2023-03-05T13:36:23;10.50;65.00
29687;DHT22;16599;47.078;15.536;2023-03-05T13:38:50;11.10;61.30
29687;DHT22;16599;47.078;15.536;2023-03-05T13:41:18;11.30;58.80
29687;DHT22;16599;47.078;15.536;2023-03-05T13:43:50;10.90;59.00
29687;DHT22;16599;47.078;15.536;2023-03-05T13:46:33;10.70;62.80
29687;DHT22;16599;47.078;15.536;2023-03-05T13:51:47;9.30;63.70
29687;DHT22;16599;47.078;15.536;2023-03-05T13:54:15;9.10;66.30
29687;DHT22;16599;47.078;15.536;2023-03-05T13:56:53;9.40;67.30
29687;DHT22;16599;47.078;15.536;2023-03-05T13:59:22;9.30;65.40
29687;DHT22;16599;47.078;15.536;2023-03-05T14:01:49;9.80;66.10
29687;DHT22;16599;47.078;15.536;2023-03-05T14:04:17;10.00;64.50
29687;DHT22;16599;47.078;15.536;2023-03-05T14:06:49;10.30;66.10
29687;DHT22;16599;47.078;15.536;2023-03-05T14:09:18;10.60;65.70
29687;DHT22;16599;47.078;15.536;2023-03-05T14:11:59;10.20;68.00
29687;DHT22;16599;47.078;15.536;2023-03-05T14:14:27;10.60;63.40
29687;DHT22;16599;47.078;15.536;2023-03-05T14:16:55;10.50;61.20
29687;DHT22;16599;47.078;15.536;2023-03-05T14:19:41;10.40;63.70
29687;DHT22;16599;47.078;15.536;2023-03-05T14:22:31;10.80;63.70
29687;DHT22;16599;47.078;15.536;2023-03-05T14:24:54;9.30;69.30
29687;DHT22;16599;47.078;15.536;2023-03-05T14:27:21;8.90;72.50
29687;DHT22;16599;47.078;15.536;2023-03-05T14:29:47;8.50;74.70
29687;DHT22;16599;47.078;15.536;2023-03-05T14:34:48;8.30;76.50
29687;DHT22;16599;47.078;15.536;2023-03-05T14:37:17;8.40;75.60
29687;DHT22;16599;47.078;15.536;2023-03-05T14:39:50;8.40;75.30
29687;DHT22;16599;47.078;15.536;2023-03-05T14:42:36;8.60;73.80
29687;DHT22;16599;47.078;15.536;2023-03-05T14:45:09;8.50;74.60
29687;DHT22;16599;47.078;15.536;2023-03-05T14:47:36;8.60;74.80
29687;DHT22;16599;47.078;15.536;2023-03-05T14:50:04;8.40;75.30
29687;DHT22;16599;47.078;15.536;2023-03-05T14:52:31;8.40;76.50
29687;DHT22;16599;47.078;15.536;2023-03-05T14:54:58;8.60;74.70
29687;DHT22;16599;47.078;15.536;2023-03-05T14:57:25;8.50;74.70
29687;DHT22;16599;47.078;15.536;2023-03-05T14:59:52;8.40;74.90
29687;DHT22;16599;47.078;15.536;2023-03-05T15:02:22;8.40;74.90
29687;DHT22;16599;47.078;15.536;2023-03-05T15:04:49;8.40;74.50
29687;DHT22;16599;47.078;15.536;2023-03-05T15:07:17;8.20;75.00
29687;DHT22;16599;47.078;15.536;2023-03-05T15:09:44;8.00;76.90
29687;DHT22;16599;47.078;15.536;2023-03-05T15:12:11;8.00;75.60
29687;DHT22;16599;47.078;15.536;2023-03-05T15:14:38;8.10;75.90
29687;DHT22;16599;47.078;15.536;2023-03-05T15:17:15;8.10;76.10
29687;DHT22;16599;47.078;15.536;2023-03-05T15:19:44;8.10;76.00
29687;DHT22;16599;47.078;15.536;2023-03-05T15:22:12;8.10;76.50
29687;DHT22;16599;47.078;15.536;2023-03-05T15:24:39;8.10;75.70
29687;DHT22;16599;47.078;15.536;2023-03-05T15:27:06;8.00;76.30
29687;DHT22;16599;47.078;15.536;2023-03-05T15:29:33;8.00;76.30
29687;DHT22;16599;47.078;15.536;2023-03-05T15:32:00;8.00;76.00
29687;DHT22;16599;47.078;15.536;2023-03-05T15:34:28;7.90;76.40
29687;DHT22;16599;47.078;15.536;2023-03-05T15:36:54;7.90;76.00
29687;DHT22;16599;47.078;15.536;2023-03-05T15:39:22;7.70;76.80
29687;DHT22;16599;47.078;15.536;2023-03-05T15:41:50;7.70;76.90
29687;DHT22;16599;47.078;15.536;2023-03-05T15:44:17;7.50;76.90
29687;DHT22;16599;47.078;15.536;2023-03-05T15:46:45;7.50;77.80
29687;DHT22;16599;47.078;15.536;2023-03-05T15:49:12;7.50;77.50
29687;DHT22;16599;47.078;15.536;2023-03-05T15:51:39;7.50;77.30
29687;DHT22;16599;47.078;15.536;2023-03-05T15:54:05;7.30;78.30
29687;DHT22;16599;47.078;15.536;2023-03-05T15:56:32;7.20;78.60
29687;DHT22;16599;47.078;15.536;2023-03-05T15:58:59;7.20;78.90
29687;DHT22;16599;47.078;15.536;2023-03-05T16:01:26;7.10;78.70
29687;DHT22;16599;47.078;15.536;2023-03-05T16:03:53;7.20;79.10
29687;DHT22;16599;47.078;15.536;2023-03-05T16:06:20;7.20;79.50
29687;DHT22;16599;47.078;15.536;2023-03-05T16:08:49;7.10;79.30
29687;DHT22;16599;47.078;15.536;2023-03-05T16:11:16;7.10;79.10
29687;DHT22;16599;47.078;15.536;2023-03-05T16:13:43;6.90;80.20
29687;DHT22;16599;47.078;15.536;2023-03-05T16:16:10;7.00;79.60
29687;DHT22;16599;47.078;15.536;2023-03-05T16:18:39;7.00;79.70
29687;DHT22;16599;47.078;15.536;2023-03-05T16:21:06;7.00;79.60
29687;DHT22;16599;47.078;15.536;2023-03-05T16:23:33;6.90;79.70
29687;DHT22;16599;47.078;15.536;2023-03-05T16:26:00;6.70;80.20
29687;DHT22;16599;47.078;15.536;2023-03-05T16:28:26;6.70;80.50
29687;DHT22;16599;47.078;15.536;2023-03-05T16:30:54;6.60;80.70
29687;DHT22;16599;47.078;15.536;2023-03-05T16:33:21;6.40;81.20
29687;DHT22;16599;47.078;15.536;2023-03-05T16:35:48;6.40;81.50
29687;DHT22;16599;47.078;15.536;2023-03-05T16:38:14;6.40;81.90
29687;DHT22;16599;47.078;15.536;2023-03-05T16:40:41;6.50;81.10
29687;DHT22;16599;47.078;15.536;2023-03-05T16:43:28;6.40;81.50
29687;DHT22;16599;47.078;15.536;2023-03-05T16:45:54;6.40;81.30
29687;DHT22;16599;47.078;15.536;2023-03-05T16:48:21;6.20;82.40
29687;DHT22;16599;47.078;15.536;2023-03-05T16:50:48;5.80;84.10